createdAt,value
2018-09-19T00:01:47.382Z,100.00
2018-09-19T00:04:15.586Z,100.00
2018-09-19T00:06:43.754Z,99.23
2018-09-19T00:09:12.482Z,99.87
2018-09-19T00:11:40.943Z,99.52
2018-09-19T00:14:13.552Z,99.55
2018-09-19T00:16:41.680Z,99.30
2018-09-19T00:19:09.790Z,99.99
2018-09-19T00:21:37.940Z,99.57
2018-09-19T00:24:06.097Z,98.66
2018-09-19T00:26:34.242Z,98.52
2018-09-19T00:29:02.386Z,98.57
2018-09-19T00:31:30.466Z,98.57
2018-09-19T00:33:58.624Z,98.67
2018-09-19T00:36:26.773Z,98.52
2018-09-19T00:38:54.895Z,98.18
2018-09-19T00:41:23.031Z,98.15
2018-09-19T00:43:51.157Z,98.08
2018-09-19T00:46:19.264Z,97.44
2018-09-19T00:48:47.445Z,97.39
2018-09-19T00:51:15.628Z,97.44
2018-09-19T00:53:43.904Z,97.97
2018-09-19T00:56:12.020Z,98.12
2018-09-19T00:58:40.256Z,97.88
2018-09-19T01:01:08.419Z,98.14
2018-09-19T01:03:36.570Z,98.01
2018-09-19T01:06:04.732Z,97.84
2018-09-19T01:08:32.859Z,97.79
2018-09-19T01:11:00.980Z,97.70
2018-09-19T01:13:29.137Z,97.41
2018-09-19T01:15:57.269Z,97.68
2018-09-19T01:18:25.379Z,98.04
2018-09-19T01:20:53.548Z,98.34
2018-09-19T01:23:21.693Z,98.79
2018-09-19T01:25:49.828Z,98.85
2018-09-19T01:28:18.019Z,98.79
2018-09-19T01:30:46.136Z,98.38
2018-09-19T01:33:14.266Z,98.53
2018-09-19T01:35:42.436Z,98.40
2018-09-19T01:38:10.546Z,98.81
2018-09-19T01:40:38.676Z,98.80
2018-09-19T01:43:06.797Z,98.73
2018-09-19T01:45:34.917Z,98.23
2018-09-19T01:48:03.047Z,98.19
2018-09-19T01:50:31.213Z,98.35
2018-09-19T01:52:59.349Z,98.37
2018-09-19T01:55:27.470Z,98.19
2018-09-19T01:57:55.598Z,98.30
2018-09-19T02:00:23.728Z,98.83
2018-09-19T02:02:51.845Z,98.56
2018-09-19T02:05:19.978Z,98.35
2018-09-19T02:07:48.084Z,98.42
2018-09-19T02:10:16.224Z,98.14
2018-09-19T02:12:44.342Z,98.35
2018-09-19T02:15:12.512Z,98.58
2018-09-19T02:17:40.604Z,98.54
2018-09-19T02:20:08.717Z,99.08
2018-09-19T02:22:36.817Z,99.25
2018-09-19T02:25:04.946Z,99.71
2018-09-19T02:27:33.057Z,99.54
2018-09-19T02:30:01.192Z,99.13
2018-09-19T02:32:29.312Z,99.06
2018-09-19T02:34:57.469Z,99.33
2018-09-19T02:37:25.580Z,99.14
2018-09-19T02:39:53.740Z,99.28
2018-09-19T02:42:21.906Z,99.75
2018-09-19T02:44:50.044Z,99.09
2018-09-19T02:47:18.197Z,99.44
2018-09-19T02:49:46.308Z,99.26
2018-09-19T02:52:14.448Z,99.67
2018-09-19T02:54:42.597Z,99.78
2018-09-19T02:57:10.674Z,99.90
2018-09-19T02:59:38.813Z,99.21
2018-09-19T03:02:06.954Z,100.00
2018-09-19T03:04:35.074Z,99.06
2018-09-19T03:07:03.213Z,98.57
2018-09-19T03:09:31.305Z,99.11
2018-09-19T03:11:59.416Z,99.78
2018-09-19T03:14:27.577Z,99.68
2018-09-19T03:16:55.686Z,100.00
2018-09-19T03:19:23.804Z,100.00
2018-09-19T03:21:52.032Z,99.74
2018-09-19T03:24:20.197Z,100.00
2018-09-19T03:26:48.351Z,100.00
2018-09-19T03:29:16.480Z,100.00
2018-09-19T03:31:44.592Z,99.66
2018-09-19T03:34:12.698Z,99.46
2018-09-19T03:36:40.801Z,99.60
2018-09-19T03:39:10.051Z,100.00
2018-09-19T03:41:38.633Z,100.00
2018-09-19T03:44:06.931Z,100.00
2018-09-19T03:46:35.505Z,100.00
2018-09-19T03:49:03.650Z,100.00
2018-09-19T03:51:31.877Z,100.00
2018-09-19T03:54:00.039Z,100.00
2018-09-19T03:56:28.192Z,100.00
2018-09-19T03:58:56.329Z,100.00
2018-09-19T04:01:24.577Z,100.00
2018-09-19T04:03:52.733Z,100.00
2018-09-19T04:06:20.882Z,100.00
2018-09-19T04:08:49.233Z,100.00
2018-09-19T04:11:17.416Z,100.00
2018-09-19T04:13:45.541Z,99.88
2018-09-19T04:16:13.694Z,99.87
2018-09-19T04:18:41.850Z,100.00
2018-09-19T04:21:10.027Z,100.00
2018-09-19T04:23:39.465Z,100.00
2018-09-19T04:26:07.617Z,100.00
2018-09-19T04:28:35.785Z,100.00
2018-09-19T04:31:03.924Z,100.00
2018-09-19T04:33:32.038Z,100.00
2018-09-19T04:36:00.164Z,100.00
2018-09-19T04:38:28.305Z,100.00
2018-09-19T04:40:56.464Z,100.00
2018-09-19T04:43:24.592Z,100.00
2018-09-19T04:45:52.718Z,100.00
2018-09-19T04:48:20.901Z,100.00
2018-09-19T04:50:51.157Z,100.00
2018-09-19T04:53:19.452Z,100.00
2018-09-19T04:55:47.582Z,100.00
2018-09-19T04:58:15.773Z,100.00
2018-09-19T05:00:43.982Z,100.00
2018-09-19T05:03:12.150Z,100.00
2018-09-19T05:05:40.355Z,100.00
2018-09-19T05:08:08.474Z,100.00
2018-09-19T05:10:36.694Z,100.00
2018-09-19T05:13:04.838Z,100.00
2018-09-19T05:15:33.072Z,100.00
2018-09-19T05:18:01.215Z,100.00
2018-09-19T05:20:29.345Z,100.00
2018-09-19T05:22:57.505Z,100.00
2018-09-19T05:25:25.838Z,100.00
2018-09-19T05:27:53.992Z,100.00
2018-09-19T05:30:22.143Z,100.00
2018-09-19T05:32:50.355Z,100.00
2018-09-19T05:35:18.497Z,100.00
2018-09-19T05:37:46.688Z,100.00
2018-09-19T05:40:14.827Z,100.00
2018-09-19T05:42:43.002Z,100.00
2018-09-19T05:45:11.799Z,99.94
2018-09-19T05:47:39.922Z,99.72
2018-09-19T05:50:08.122Z,99.95
2018-09-19T05:52:36.317Z,99.85
2018-09-19T05:55:04.490Z,99.79
2018-09-19T05:57:32.660Z,99.40
2018-09-19T06:00:00.815Z,99.62
2018-09-19T06:02:28.988Z,100.00
2018-09-19T06:04:57.125Z,100.00
2018-09-19T06:07:25.206Z,99.94
2018-09-19T06:09:53.319Z,99.64
2018-09-19T06:12:21.481Z,99.37
2018-09-19T06:14:49.647Z,99.08
2018-09-19T06:17:17.756Z,98.78
2018-09-19T06:19:45.924Z,98.67
2018-09-19T06:22:14.070Z,98.74
2018-09-19T06:24:42.231Z,98.30
2018-09-19T06:27:10.372Z,98.43
2018-09-19T06:29:38.480Z,97.90
2018-09-19T06:32:06.741Z,97.88
2018-09-19T06:34:34.861Z,97.03
2018-09-19T06:37:03.033Z,96.85
2018-09-19T06:39:31.102Z,97.42
2018-09-19T06:41:59.272Z,96.74
2018-09-19T06:44:27.428Z,96.74
2018-09-19T06:46:55.627Z,96.01
2018-09-19T06:49:23.686Z,95.42
2018-09-19T06:51:51.885Z,94.83
2018-09-19T06:54:19.997Z,94.23
2018-09-19T06:56:48.177Z,93.81
2018-09-19T06:59:16.279Z,93.80
2018-09-19T07:01:44.394Z,93.59
2018-09-19T07:04:12.837Z,93.01
2018-09-19T07:06:40.967Z,93.24
2018-09-19T07:09:10.005Z,92.39
2018-09-19T07:11:38.153Z,91.17
2018-09-19T07:14:06.675Z,92.01
2018-09-19T07:16:34.799Z,91.97
2018-09-19T07:19:02.983Z,92.91
2018-09-19T07:21:31.092Z,92.70
2018-09-19T07:23:59.231Z,91.93
2018-09-19T07:26:27.347Z,91.69
2018-09-19T07:28:55.507Z,91.20
2018-09-19T07:31:23.627Z,91.73
2018-09-19T07:33:51.743Z,91.53
2018-09-19T07:36:19.843Z,91.68
2018-09-19T07:38:47.957Z,90.86
2018-09-19T07:41:16.088Z,89.94
2018-09-19T07:43:44.192Z,89.43
2018-09-19T07:46:12.310Z,89.78
2018-09-19T07:48:40.439Z,89.34
2018-09-19T07:51:08.546Z,88.70
2018-09-19T07:53:36.654Z,88.58
2018-09-19T07:56:05.214Z,88.09
2018-09-19T07:58:33.484Z,88.56
2018-09-19T08:01:01.667Z,88.34
2018-09-19T08:03:29.717Z,86.62
2018-09-19T08:05:57.876Z,85.71
2018-09-19T08:08:25.985Z,85.73
2018-09-19T08:10:54.264Z,85.18
2018-09-19T08:13:22.401Z,85.33
2018-09-19T08:15:50.549Z,84.97
2018-09-19T08:18:18.633Z,84.24
2018-09-19T08:20:46.753Z,83.27
2018-09-19T08:23:14.883Z,82.87
2018-09-19T08:25:43.048Z,82.72
2018-09-19T08:28:11.193Z,81.37
2018-09-19T08:30:39.301Z,81.30
2018-09-19T08:33:07.421Z,81.83
2018-09-19T08:35:35.523Z,81.66
2018-09-19T08:38:03.639Z,81.07
2018-09-19T08:40:31.893Z,81.15
2018-09-19T08:43:00.048Z,80.85
2018-09-19T08:45:28.218Z,80.34
2018-09-19T08:47:56.366Z,79.57
2018-09-19T08:50:24.526Z,79.03
2018-09-19T08:52:52.653Z,78.32
2018-09-19T08:55:20.777Z,77.62
2018-09-19T08:57:48.937Z,76.92
2018-09-19T09:00:17.089Z,77.67
2018-09-19T09:02:45.201Z,77.52
2018-09-19T09:05:13.392Z,78.07
2018-09-19T09:07:41.472Z,76.78
2018-09-19T09:10:09.619Z,76.48
2018-09-19T09:12:37.979Z,76.11
2018-09-19T09:15:06.133Z,74.85
2018-09-19T09:17:34.281Z,74.37
2018-09-19T09:20:02.473Z,74.36
2018-09-19T09:22:30.576Z,74.04
2018-09-19T09:24:58.843Z,73.23
2018-09-19T09:27:27.067Z,72.19
2018-09-19T09:29:55.069Z,71.17
2018-09-19T09:32:23.152Z,70.92
2018-09-19T09:34:51.265Z,71.34
2018-09-19T09:37:19.379Z,71.57
2018-09-19T09:39:47.497Z,71.36
2018-09-19T09:42:15.601Z,70.43
2018-09-19T09:44:43.682Z,69.50
2018-09-19T09:47:11.805Z,69.25
2018-09-19T09:49:39.937Z,69.49
2018-09-19T09:52:08.074Z,69.23
2018-09-19T09:54:36.374Z,68.09
2018-09-19T09:57:04.768Z,68.13
2018-09-19T09:59:32.891Z,67.35
2018-09-19T10:02:01.093Z,67.29
2018-09-19T10:04:29.238Z,66.26
2018-09-19T10:06:57.342Z,67.72
2018-09-19T10:09:25.471Z,66.56
2018-09-19T10:11:53.553Z,65.33
2018-09-19T10:14:21.654Z,66.36
2018-09-19T10:16:49.753Z,65.52
2018-09-19T10:19:17.904Z,65.67
2018-09-19T10:21:45.996Z,64.74
2018-09-19T10:24:14.148Z,65.25
2018-09-19T10:26:42.292Z,64.71
2018-09-19T10:29:10.387Z,63.24
2018-09-19T10:31:38.530Z,63.98
2018-09-19T10:34:06.698Z,64.68
2018-09-19T10:36:34.819Z,64.77
2018-09-19T10:39:03.013Z,63.57
2018-09-19T10:41:31.133Z,62.71
2018-09-19T10:43:59.281Z,62.52
2018-09-19T10:46:27.359Z,62.67
2018-09-19T10:48:55.486Z,61.98
2018-09-19T10:51:23.613Z,62.24
2018-09-19T10:53:51.708Z,61.75
2018-09-19T10:56:19.833Z,62.03
2018-09-19T10:58:47.956Z,62.60
2018-09-19T11:01:16.080Z,62.37
2018-09-19T11:03:44.203Z,61.34
2018-09-19T11:06:12.418Z,61.99
2018-09-19T11:08:40.541Z,60.83
2018-09-19T11:11:09.027Z,61.31
2018-09-19T11:13:37.141Z,61.29
2018-09-19T11:16:05.397Z,61.22
2018-09-19T11:18:33.501Z,62.05
2018-09-19T11:21:01.633Z,61.25
2018-09-19T11:23:29.753Z,60.80
2018-09-19T11:25:57.893Z,61.27
2018-09-19T11:28:25.995Z,60.59
2018-09-19T11:30:54.925Z,60.77
2018-09-19T11:33:22.997Z,60.30
2018-09-19T11:35:51.080Z,59.55
2018-09-19T11:38:19.195Z,59.86
2018-09-19T11:40:47.310Z,60.02
2018-09-19T11:43:15.452Z,60.14
2018-09-19T11:45:43.513Z,60.48
2018-09-19T11:48:11.591Z,59.98
2018-09-19T11:50:39.681Z,59.71
2018-09-19T11:53:13.167Z,59.80
2018-09-19T11:55:41.292Z,60.19
2018-09-19T11:58:09.463Z,58.87
2018-09-19T12:00:37.522Z,58.80
2018-09-19T12:03:05.613Z,58.84
2018-09-19T12:05:33.709Z,58.99
2018-09-19T12:08:01.890Z,58.71
2018-09-19T12:10:29.985Z,57.94
2018-09-19T12:12:58.092Z,58.49
2018-09-19T12:15:26.291Z,57.90
2018-09-19T12:17:54.376Z,57.01
2018-09-19T12:20:22.497Z,56.53
2018-09-19T12:22:50.599Z,55.43
2018-09-19T12:25:18.669Z,55.88
2018-09-19T12:27:46.758Z,56.03
2018-09-19T12:30:15.014Z,55.42
2018-09-19T12:32:43.127Z,55.96
2018-09-19T12:35:11.283Z,55.03
2018-09-19T12:37:39.418Z,55.02
2018-09-19T12:40:07.496Z,55.22
2018-09-19T12:42:35.594Z,54.66
2018-09-19T12:45:03.677Z,56.45
2018-09-19T12:47:31.764Z,55.24
2018-09-19T12:49:59.846Z,55.24
2018-09-19T12:52:27.962Z,55.40
2018-09-19T12:54:56.043Z,55.02
2018-09-19T12:57:24.144Z,55.02
2018-09-19T12:59:52.266Z,54.96
2018-09-19T13:02:20.368Z,54.33
2018-09-19T13:04:48.464Z,54.27
2018-09-19T13:07:16.544Z,54.52
2018-09-19T13:09:44.632Z,53.72
2018-09-19T13:12:12.728Z,54.31
2018-09-19T13:14:40.822Z,55.00
2018-09-19T13:17:08.925Z,54.46
2018-09-19T13:19:37.020Z,54.53
2018-09-19T13:22:05.141Z,55.28
2018-09-19T13:24:33.219Z,55.42
2018-09-19T13:27:01.300Z,54.05
2018-09-19T13:29:29.401Z,54.19
2018-09-19T13:31:57.501Z,54.74
2018-09-19T13:34:25.573Z,54.40
2018-09-19T13:36:53.659Z,54.67
2018-09-19T13:39:21.768Z,54.36
2018-09-19T13:41:49.869Z,54.96
2018-09-19T13:44:18.045Z,54.78
2018-09-19T13:46:46.147Z,54.61
2018-09-19T13:49:26.819Z,55.40
2018-09-19T13:51:55.071Z,54.80
2018-09-19T13:54:23.161Z,54.44
2018-09-19T13:56:51.264Z,54.59
2018-09-19T13:59:19.371Z,53.83
2018-09-19T14:01:47.468Z,54.41
2018-09-19T14:04:15.645Z,54.33
2018-09-19T14:06:43.694Z,53.22
2018-09-19T14:09:11.776Z,53.50
2018-09-19T14:11:39.933Z,52.92
2018-09-19T14:14:07.988Z,53.03
2018-09-19T14:16:36.094Z,53.82
2018-09-19T14:19:04.210Z,54.53
2018-09-19T14:21:32.302Z,53.70
2018-09-19T14:24:00.376Z,54.07
2018-09-19T14:26:28.488Z,54.26
2018-09-19T14:28:56.688Z,53.64
2018-09-19T14:31:24.789Z,54.32
2018-09-19T14:33:52.911Z,54.21
2018-09-19T14:36:21.017Z,53.60
2018-09-19T14:38:49.114Z,54.66
2018-09-19T14:41:17.229Z,53.90
2018-09-19T14:43:45.307Z,53.90
2018-09-19T14:46:13.415Z,53.88
2018-09-19T14:48:41.604Z,54.48
2018-09-19T14:51:09.627Z,54.25
2018-09-19T14:53:37.704Z,54.35
2018-09-19T14:56:05.807Z,54.49
2018-09-19T14:58:33.971Z,55.14
2018-09-19T15:01:02.077Z,53.91
2018-09-19T15:03:30.168Z,55.04
2018-09-19T15:05:58.308Z,54.47
2018-09-19T15:08:26.438Z,54.37
2018-09-19T15:10:54.561Z,54.58
2018-09-19T15:13:22.688Z,54.63
2018-09-19T15:15:50.788Z,55.45
2018-09-19T15:18:18.899Z,56.80
2018-09-19T15:20:47.017Z,57.05
2018-09-19T15:23:15.240Z,56.34
2018-09-19T15:25:43.371Z,56.23
2018-09-19T15:28:11.481Z,57.54
2018-09-19T15:30:39.594Z,56.81
2018-09-19T15:33:07.709Z,56.26
2018-09-19T15:35:35.838Z,56.82
2018-09-19T15:38:03.971Z,56.72
2018-09-19T15:40:32.104Z,56.55
2018-09-19T15:43:00.224Z,57.32
2018-09-19T15:45:28.361Z,56.00
2018-09-19T15:47:56.527Z,57.23
2018-09-19T15:50:24.627Z,56.34
2018-09-19T15:52:52.759Z,56.75
2018-09-19T15:55:20.964Z,57.18
2018-09-19T15:57:49.109Z,56.60
2018-09-19T16:00:17.869Z,57.66
2018-09-19T16:02:46.032Z,58.96
2018-09-19T16:05:14.164Z,57.78
2018-09-19T16:07:42.294Z,58.79
2018-09-19T16:10:10.398Z,58.67
2018-09-19T16:12:38.524Z,60.75
2018-09-19T16:15:06.653Z,60.78
2018-09-19T16:17:34.778Z,60.77
2018-09-19T16:20:02.906Z,60.48
2018-09-19T16:22:31.005Z,60.87
2018-09-19T16:24:59.117Z,60.36
2018-09-19T16:27:27.232Z,62.39
2018-09-19T16:29:55.359Z,60.07
2018-09-19T16:32:23.478Z,60.03
2018-09-19T16:34:51.616Z,61.52
2018-09-19T16:37:19.737Z,62.70
2018-09-19T16:39:47.845Z,62.67
2018-09-19T16:42:16.024Z,60.77
2018-09-19T16:44:44.119Z,61.41
2018-09-19T16:47:12.257Z,63.31
2018-09-19T16:49:40.397Z,62.12
2018-09-19T16:52:08.527Z,64.27
2018-09-19T16:54:36.659Z,63.82
2018-09-19T16:57:04.820Z,64.45
2018-09-19T16:59:32.969Z,64.40
2018-09-19T17:02:01.121Z,64.98
2018-09-19T17:04:29.252Z,65.39
2018-09-19T17:06:57.432Z,65.26
2018-09-19T17:09:25.584Z,65.69
2018-09-19T17:11:53.706Z,64.99
2018-09-19T17:14:21.879Z,67.00
2018-09-19T17:16:50.017Z,67.17
2018-09-19T17:19:18.141Z,66.74
2018-09-19T17:21:46.243Z,67.13
2018-09-19T17:24:14.372Z,68.95
2018-09-19T17:26:42.470Z,68.65
2018-09-19T17:29:10.581Z,68.24
2018-09-19T17:31:38.703Z,69.63
2018-09-19T17:34:06.861Z,69.80
2018-09-19T17:36:35.016Z,69.96
2018-09-19T17:39:03.936Z,69.73
2018-09-19T17:41:32.048Z,70.51
2018-09-19T17:44:00.184Z,69.91
2018-09-19T17:46:28.312Z,68.83
2018-09-19T17:48:56.442Z,68.73
2018-09-19T17:51:24.581Z,68.77
2018-09-19T17:53:52.699Z,67.78
2018-09-19T17:56:20.805Z,68.97
2018-09-19T17:58:48.988Z,68.27
2018-09-19T18:01:17.129Z,68.46
2018-09-19T18:03:45.264Z,68.40
2018-09-19T18:06:13.846Z,69.11
2018-09-19T18:08:42.017Z,68.80
2018-09-19T18:11:10.175Z,68.81
2018-09-19T18:13:39.448Z,68.54
2018-09-19T18:16:07.555Z,68.68
2018-09-19T18:18:35.690Z,69.72
2018-09-19T18:21:03.816Z,69.03
2018-09-19T18:23:31.958Z,69.46
2018-09-19T18:26:00.062Z,69.18
2018-09-19T18:28:28.173Z,69.57
2018-09-19T18:30:56.274Z,69.39
2018-09-19T18:33:24.392Z,70.33
2018-09-19T18:35:52.509Z,70.63
2018-09-19T18:38:20.644Z,70.76
2018-09-19T18:40:48.739Z,71.00
2018-09-19T18:43:16.846Z,71.45
2018-09-19T18:45:45.030Z,71.23
2018-09-19T18:48:13.174Z,71.37
2018-09-19T18:50:41.303Z,70.69
2018-09-19T18:53:09.587Z,70.93
2018-09-19T18:55:37.720Z,70.97
2018-09-19T18:58:05.845Z,72.09
2018-09-19T19:00:33.968Z,72.71
2018-09-19T19:03:02.072Z,72.40
2018-09-19T19:05:30.302Z,71.66
2018-09-19T19:07:58.499Z,70.95
2018-09-19T19:10:26.648Z,72.14
2018-09-19T19:12:54.762Z,71.94
2018-09-19T19:15:22.895Z,72.79
2018-09-19T19:17:51.061Z,72.90
2018-09-19T19:20:19.228Z,73.31
2018-09-19T19:22:47.383Z,72.33
2018-09-19T19:25:15.544Z,72.19
2018-09-19T19:27:43.720Z,71.29
2018-09-19T19:30:11.989Z,71.35
2018-09-19T19:32:40.054Z,71.69
2018-09-19T19:35:08.185Z,71.63
2018-09-19T19:37:36.381Z,72.28
2018-09-19T19:40:04.538Z,71.49
2018-09-19T19:42:32.690Z,71.47
2018-09-19T19:45:00.826Z,71.67
2018-09-19T19:47:29.021Z,71.82
2018-09-19T19:49:57.151Z,72.44
2018-09-19T19:52:25.287Z,72.36
2018-09-19T19:54:53.441Z,72.10
2018-09-19T19:57:21.568Z,72.40
2018-09-19T19:59:49.696Z,73.63
2018-09-19T20:02:17.857Z,73.33
2018-09-19T20:04:46.013Z,73.77
2018-09-19T20:07:14.178Z,73.99
2018-09-19T20:09:42.398Z,74.57
2018-09-19T20:12:10.520Z,74.48
2018-09-19T20:14:38.743Z,73.73
2018-09-19T20:17:06.847Z,74.31
2018-09-19T20:19:35.029Z,73.76
2018-09-19T20:22:03.157Z,73.74
2018-09-19T20:24:31.296Z,73.64
2018-09-19T20:26:59.461Z,73.12
2018-09-19T20:29:27.613Z,74.28
2018-09-19T20:31:55.766Z,73.73
2018-09-19T20:34:23.919Z,74.05
2018-09-19T20:36:52.097Z,73.51
2018-09-19T20:39:20.196Z,74.33
2018-09-19T20:41:48.375Z,74.22
2018-09-19T20:44:16.577Z,74.82
2018-09-19T20:46:44.800Z,73.53
2018-09-19T20:49:12.918Z,74.04
2018-09-19T20:51:41.057Z,74.31
2018-09-19T20:54:09.191Z,73.61
2018-09-19T20:56:37.353Z,73.73
2018-09-19T20:59:05.968Z,73.67
2018-09-19T21:01:34.111Z,74.02
2018-09-19T21:04:02.406Z,73.70
2018-09-19T21:06:30.539Z,73.53
2018-09-19T21:08:58.689Z,73.87
2018-09-19T21:11:26.850Z,74.12
2018-09-19T21:13:55.450Z,74.84
2018-09-19T21:16:23.692Z,74.91
2018-09-19T21:18:51.906Z,74.33
2018-09-19T21:21:20.094Z,75.07
2018-09-19T21:23:48.263Z,75.53
2018-09-19T21:26:16.387Z,74.68
2018-09-19T21:28:44.541Z,75.33
2018-09-19T21:31:12.682Z,76.06
2018-09-19T21:33:41.909Z,76.39
2018-09-19T21:36:10.047Z,77.04
2018-09-19T21:38:38.162Z,76.96
2018-09-19T21:41:06.624Z,77.43
2018-09-19T21:43:34.801Z,76.58
2018-09-19T21:46:02.944Z,77.04
2018-09-19T21:48:31.111Z,76.77
2018-09-19T21:50:59.356Z,76.17
2018-09-19T21:53:27.489Z,76.84
2018-09-19T21:55:55.636Z,75.83
2018-09-19T21:58:23.998Z,74.65
2018-09-19T22:00:57.426Z,74.56
2018-09-19T22:03:25.549Z,74.59
2018-09-19T22:05:53.656Z,73.92
2018-09-19T22:08:21.809Z,74.17
2018-09-19T22:10:49.923Z,74.41
2018-09-19T22:13:18.114Z,74.08
2018-09-19T22:15:46.289Z,74.78
2018-09-19T22:18:14.438Z,74.89
2018-09-19T22:20:42.588Z,74.81
2018-09-19T22:23:10.858Z,75.13
2018-09-19T22:25:39.016Z,74.66
2018-09-19T22:28:07.126Z,74.73
2018-09-19T22:30:35.257Z,75.06
2018-09-19T22:33:03.557Z,73.96
2018-09-19T22:35:31.689Z,73.65
2018-09-19T22:37:59.839Z,74.37
2018-09-19T22:40:28.017Z,74.76
2018-09-19T22:42:56.189Z,74.91
2018-09-19T22:45:24.325Z,74.39
2018-09-19T22:47:52.510Z,74.66
2018-09-19T22:50:20.672Z,75.02
2018-09-19T22:52:48.816Z,75.62
2018-09-19T22:55:17.012Z,75.74
2018-09-19T22:57:45.158Z,75.16
2018-09-19T23:00:13.284Z,75.64
2018-09-19T23:02:41.466Z,76.48
2018-09-19T23:05:09.596Z,75.56
2018-09-19T23:07:37.725Z,76.50
2018-09-19T23:10:05.975Z,76.41
2018-09-19T23:12:34.122Z,75.89
2018-09-19T23:15:02.276Z,76.99
2018-09-19T23:17:30.460Z,77.44
2018-09-19T23:19:58.629Z,76.92
2018-09-19T23:22:26.768Z,77.59
2018-09-19T23:24:55.036Z,76.95
2018-09-19T23:27:23.268Z,76.88
2018-09-19T23:29:51.478Z,76.73
2018-09-19T23:32:19.649Z,76.38
2018-09-19T23:34:47.818Z,75.40
2018-09-19T23:37:15.985Z,75.69
2018-09-19T23:39:44.155Z,75.41
2018-09-19T23:42:12.339Z,75.51
2018-09-19T23:44:40.498Z,75.52
2018-09-19T23:47:08.643Z,75.10
2018-09-19T23:49:36.794Z,75.39
2018-09-19T23:52:05.037Z,75.05
2018-09-19T23:54:33.183Z,74.44
2018-09-19T23:57:01.322Z,75.08
2018-09-19T23:59:29.460Z,75.21
